Terminal Aerodrome Forecast
Issued by NWS Quad Cities IA IL

Home | Current Version | Previous Version | Text Only | Print | Product List | Glossary On
Versions: 1 2 3 4 5 6 7 8 9 10 11 12 13 14 15
751
FTUS43 KDVN 251122
TAFMLI
TAF
KMLI 251122Z 2512/2612 33004KT P6SM BKN250
     FM251600 34008KT P6SM SCT250
     FM260200 31004KT P6SM SKC
     FM260900 30002KT 4SM BR SKC=

USA.gov is the U.S. government's official web portal to all federal, state and local government web resources and services.